Terminal Aerodrome Forecast
Issued by NWS

Home | Current Version | Previous Version | Graphics & Text | Print | Product List | Glossary On
Versions: 1 2 3 4 5 6 7 8 9 10 11 12 13 14 15
000
FTUS43 KGRB 132323
TAFATW
TAF
KATW 132323Z 1400/1424 VRB03KT P6SM SCT050 BKN100
      TEMPO 1404/1408 BKN050
     FM141300 25007KT P6SM FEW100 SCT200=

USA.gov is the U.S. government's official web portal to all federal, state and local government web resources and services.